sensor_id;sensor_type;location;lat;lon;timestamp;temperature;humidity
48043;DHT22;33988;47.992;8.820;2023-06-10T00:00:08;23.50;42.00
48043;DHT22;33988;47.992;8.820;2023-06-10T00:02:37;23.50;42.10
48043;DHT22;33988;47.992;8.820;2023-06-10T00:05:07;23.50;42.10
48043;DHT22;33988;47.992;8.820;2023-06-10T00:07:37;23.50;42.10
48043;DHT22;33988;47.992;8.820;2023-06-10T00:10:05;23.40;42.10
48043;DHT22;33988;47.992;8.820;2023-06-10T00:12:33;23.40;42.10
48043;DHT22;33988;47.992;8.820;2023-06-10T00:15:05;23.40;42.10
48043;DHT22;33988;47.992;8.820;2023-06-10T00:17:35;23.10;42.10
48043;DHT22;33988;47.992;8.820;2023-06-10T00:20:08;23.30;42.10
48043;DHT22;33988;47.992;8.820;2023-06-10T00:22:37;23.30;42.10
48043;DHT22;33988;47.992;8.820;2023-06-10T00:25:06;23.10;42.10
48043;DHT22;33988;47.992;8.820;2023-06-10T00:27:34;23.20;42.00
48043;DHT22;33988;47.992;8.820;2023-06-10T00:30:05;23.20;42.00
48043;DHT22;33988;47.992;8.820;2023-06-10T00:32:38;23.10;42.10
48043;DHT22;33988;47.992;8.820;2023-06-10T00:35:05;23.10;42.20
48043;DHT22;33988;47.992;8.820;2023-06-10T00:37:36;23.10;42.30
48043;DHT22;33988;47.992;8.820;2023-06-10T00:40:05;23.00;42.40
48043;DHT22;33988;47.992;8.820;2023-06-10T00:42:34;22.80;42.50
48043;DHT22;33988;47.992;8.820;2023-06-10T00:45:01;22.90;42.30
48043;DHT22;33988;47.992;8.820;2023-06-10T00:47:29;22.90;42.50
48043;DHT22;33988;47.992;8.820;2023-06-10T00:49:57;22.90;42.50
48043;DHT22;33988;47.992;8.820;2023-06-10T00:52:28;22.90;42.70
48043;DHT22;33988;47.992;8.820;2023-06-10T00:54:56;22.80;42.80
48043;DHT22;33988;47.992;8.820;2023-06-10T00:57:23;22.80;42.80
48043;DHT22;33988;47.992;8.820;2023-06-10T00:59:52;22.80;42.80
48043;DHT22;33988;47.992;8.820;2023-06-10T01:02:21;22.80;43.00
48043;DHT22;33988;47.992;8.820;2023-06-10T01:04:50;22.50;42.90
48043;DHT22;33988;47.992;8.820;2023-06-10T01:07:28;22.70;42.70
48043;DHT22;33988;47.992;8.820;2023-06-10T01:10:06;22.70;42.90
48043;DHT22;33988;47.992;8.820;2023-06-10T01:13:00;22.70;43.00
48043;DHT22;33988;47.992;8.820;2023-06-10T01:15:33;22.70;43.00
48043;DHT22;33988;47.992;8.820;2023-06-10T01:18:05;22.60;43.10
48043;DHT22;33988;47.992;8.820;2023-06-10T01:20:37;22.60;43.20
48043;DHT22;33988;47.992;8.820;2023-06-10T01:23:07;22.60;43.20
48043;DHT22;33988;47.992;8.820;2023-06-10T01:25:40;22.60;43.30
48043;DHT22;33988;47.992;8.820;2023-06-10T01:28:34;22.60;43.40
48043;DHT22;33988;47.992;8.820;2023-06-10T01:31:42;22.50;43.40
48043;DHT22;33988;47.992;8.820;2023-06-10T01:34:16;22.40;43.50
48043;DHT22;33988;47.992;8.820;2023-06-10T01:36:47;22.40;43.30
48043;DHT22;33988;47.992;8.820;2023-06-10T01:39:16;22.40;43.30
48043;DHT22;33988;47.992;8.820;2023-06-10T01:41:48;22.30;43.50
48043;DHT22;33988;47.992;8.820;2023-06-10T01:44:21;22.30;43.60
48043;DHT22;33988;47.992;8.820;2023-06-10T01:46:49;22.20;43.80
48043;DHT22;33988;47.992;8.820;2023-06-10T01:49:18;22.20;43.80
48043;DHT22;33988;47.992;8.820;2023-06-10T01:51:45;22.20;43.90
48043;DHT22;33988;47.992;8.820;2023-06-10T01:54:12;22.20;43.90
48043;DHT22;33988;47.992;8.820;2023-06-10T01:56:40;22.10;43.80
48043;DHT22;33988;47.992;8.820;2023-06-10T01:59:10;22.00;43.80
48043;DHT22;33988;47.992;8.820;2023-06-10T02:01:37;21.90;43.90
48043;DHT22;33988;47.992;8.820;2023-06-10T02:04:04;21.90;44.00
48043;DHT22;33988;47.992;8.820;2023-06-10T02:06:31;21.90;44.20
48043;DHT22;33988;47.992;8.820;2023-06-10T02:08:58;21.80;44.30
48043;DHT22;33988;47.992;8.820;2023-06-10T02:11:25;21.70;44.30
48043;DHT22;33988;47.992;8.820;2023-06-10T02:13:53;21.70;44.50
48043;DHT22;33988;47.992;8.820;2023-06-10T02:16:20;21.60;44.60
48043;DHT22;33988;47.992;8.820;2023-06-10T02:18:47;21.60;44.70
48043;DHT22;33988;47.992;8.820;2023-06-10T02:21:17;21.60;44.80
48043;DHT22;33988;47.992;8.820;2023-06-10T02:23:44;21.60;44.90
48043;DHT22;33988;47.992;8.820;2023-06-10T02:26:11;21.60;45.00
48043;DHT22;33988;47.992;8.820;2023-06-10T02:28:43;21.60;45.00
48043;DHT22;33988;47.992;8.820;2023-06-10T02:31:13;21.60;45.00
48043;DHT22;33988;47.992;8.820;2023-06-10T02:33:44;21.50;45.00
48043;DHT22;33988;47.992;8.820;2023-06-10T02:36:11;21.50;45.00
48043;DHT22;33988;47.992;8.820;2023-06-10T02:38:42;21.50;45.00
48043;DHT22;33988;47.992;8.820;2023-06-10T02:41:14;21.50;45.10
48043;DHT22;33988;47.992;8.820;2023-06-10T02:43:43;21.40;45.10
48043;DHT22;33988;47.992;8.820;2023-06-10T02:46:10;21.40;45.20
48043;DHT22;33988;47.992;8.820;2023-06-10T02:48:41;21.30;45.30
48043;DHT22;33988;47.992;8.820;2023-06-10T02:51:10;21.30;45.50
48043;DHT22;33988;47.992;8.820;2023-06-10T02:53:37;21.20;45.50
48043;DHT22;33988;47.992;8.820;2023-06-10T02:56:07;21.20;45.60
48043;DHT22;33988;47.992;8.820;2023-06-10T02:58:34;21.20;45.70
48043;DHT22;33988;47.992;8.820;2023-06-10T03:01:01;21.20;45.70
48043;DHT22;33988;47.992;8.820;2023-06-10T03:03:30;21.20;45.80
48043;DHT22;33988;47.992;8.820;2023-06-10T03:06:00;21.20;45.90
48043;DHT22;33988;47.992;8.820;2023-06-10T03:08:27;21.20;45.80
48043;DHT22;33988;47.992;8.820;2023-06-10T03:10:55;21.10;45.80
48043;DHT22;33988;47.992;8.820;2023-06-10T03:13:24;21.10;45.80
48043;DHT22;33988;47.992;8.820;2023-06-10T03:15:54;21.10;46.60
48043;DHT22;33988;47.992;8.820;2023-06-10T03:18:21;21.10;45.90
48043;DHT22;33988;47.992;8.820;2023-06-10T03:20:53;21.10;46.00
48043;DHT22;33988;47.992;8.820;2023-06-10T03:23:23;21.10;46.00
48043;DHT22;33988;47.992;8.820;2023-06-10T03:25:50;21.10;46.10
48043;DHT22;33988;47.992;8.820;2023-06-10T03:28:19;21.10;46.10
48043;DHT22;33988;47.992;8.820;2023-06-10T03:30:46;21.10;46.20
48043;DHT22;33988;47.992;8.820;2023-06-10T03:33:14;21.10;46.20
48043;DHT22;33988;47.992;8.820;2023-06-10T03:35:43;21.10;46.20
48043;DHT22;33988;47.992;8.820;2023-06-10T03:38:11;21.00;46.20
48043;DHT22;33988;47.992;8.820;2023-06-10T03:40:37;21.00;46.20
48043;DHT22;33988;47.992;8.820;2023-06-10T03:43:04;21.00;46.20
48043;DHT22;33988;47.992;8.820;2023-06-10T03:45:34;21.00;46.20
48043;DHT22;33988;47.992;8.820;2023-06-10T03:48:03;21.00;46.30
48043;DHT22;33988;47.992;8.820;2023-06-10T03:50:31;20.90;46.30
48043;DHT22;33988;47.992;8.820;2023-06-10T03:52:58;20.90;46.40
48043;DHT22;33988;47.992;8.820;2023-06-10T03:55:25;20.90;46.50
48043;DHT22;33988;47.992;8.820;2023-06-10T03:57:52;20.90;46.60
48043;DHT22;33988;47.992;8.820;2023-06-10T04:00:19;20.90;46.70
48043;DHT22;33988;47.992;8.820;2023-06-10T04:02:48;20.90;46.70
48043;DHT22;33988;47.992;8.820;2023-06-10T04:05:19;20.90;46.80
48043;DHT22;33988;47.992;8.820;2023-06-10T04:07:49;20.90;46.80
48043;DHT22;33988;47.992;8.820;2023-06-10T04:10:16;20.90;46.80
48043;DHT22;33988;47.992;8.820;2023-06-10T04:12:44;20.90;46.80
48043;DHT22;33988;47.992;8.820;2023-06-10T04:15:11;21.00;46.90
48043;DHT22;33988;47.992;8.820;2023-06-10T04:17:41;21.00;46.90
48043;DHT22;33988;47.992;8.820;2023-06-10T04:20:10;21.00;46.90
48043;DHT22;33988;47.992;8.820;2023-06-10T04:22:37;21.00;47.00
48043;DHT22;33988;47.992;8.820;2023-06-10T04:25:04;21.00;47.00
48043;DHT22;33988;47.992;8.820;2023-06-10T04:27:34;21.10;47.10
48043;DHT22;33988;47.992;8.820;2023-06-10T04:30:02;21.10;47.10
48043;DHT22;33988;47.992;8.820;2023-06-10T04:32:30;21.10;47.10
48043;DHT22;33988;47.992;8.820;2023-06-10T04:34:57;21.10;47.00
48043;DHT22;33988;47.992;8.820;2023-06-10T04:37:26;21.10;47.10
48043;DHT22;33988;47.992;8.820;2023-06-10T04:39:53;21.10;47.70
48043;DHT22;33988;47.992;8.820;2023-06-10T04:42:20;21.10;47.80
48043;DHT22;33988;47.992;8.820;2023-06-10T04:44:46;21.20;47.20
48043;DHT22;33988;47.992;8.820;2023-06-10T04:47:16;21.20;47.20
48043;DHT22;33988;47.992;8.820;2023-06-10T04:49:43;21.20;47.20
48043;DHT22;33988;47.992;8.820;2023-06-10T04:52:11;21.30;47.20
48043;DHT22;33988;47.992;8.820;2023-06-10T04:54:44;21.30;47.20
48043;DHT22;33988;47.992;8.820;2023-06-10T04:57:11;21.30;47.20
48043;DHT22;33988;47.992;8.820;2023-06-10T04:59:40;21.30;47.30
48043;DHT22;33988;47.992;8.820;2023-06-10T05:02:10;21.30;47.30
48043;DHT22;33988;47.992;8.820;2023-06-10T05:04:37;21.40;47.40
48043;DHT22;33988;47.992;8.820;2023-06-10T05:07:04;21.40;47.50
48043;DHT22;33988;47.992;8.820;2023-06-10T05:09:33;21.40;47.50
48043;DHT22;33988;47.992;8.820;2023-06-10T05:12:01;21.50;47.60
48043;DHT22;33988;47.992;8.820;2023-06-10T05:14:29;21.50;47.50
48043;DHT22;33988;47.992;8.820;2023-06-10T05:16:58;21.50;47.50
48043;DHT22;33988;47.992;8.820;2023-06-10T05:19:25;21.60;47.40
48043;DHT22;33988;47.992;8.820;2023-06-10T05:21:55;21.60;47.40
48043;DHT22;33988;47.992;8.820;2023-06-10T05:24:24;21.60;47.50
48043;DHT22;33988;47.992;8.820;2023-06-10T05:26:54;21.70;47.40
48043;DHT22;33988;47.992;8.820;2023-06-10T05:29:21;21.70;47.40
48043;DHT22;33988;47.992;8.820;2023-06-10T05:31:48;21.70;47.40
48043;DHT22;33988;47.992;8.820;2023-06-10T05:34:15;21.80;47.50
48043;DHT22;33988;47.992;8.820;2023-06-10T05:36:42;21.80;47.50
48043;DHT22;33988;47.992;8.820;2023-06-10T05:39:10;21.90;47.50
48043;DHT22;33988;47.992;8.820;2023-06-10T05:41:37;21.90;47.50
48043;DHT22;33988;47.992;8.820;2023-06-10T05:44:04;22.00;47.50
48043;DHT22;33988;47.992;8.820;2023-06-10T05:46:31;22.00;47.60
48043;DHT22;33988;47.992;8.820;2023-06-10T05:49:00;22.10;47.60
48043;DHT22;33988;47.992;8.820;2023-06-10T05:51:29;22.10;47.70
48043;DHT22;33988;47.992;8.820;2023-06-10T05:53:58;22.00;47.60
48043;DHT22;33988;47.992;8.820;2023-06-10T05:56:25;22.30;47.70
48043;DHT22;33988;47.992;8.820;2023-06-10T05:58:52;22.40;47.80
48043;DHT22;33988;47.992;8.820;2023-06-10T06:01:24;22.40;47.80
48043;DHT22;33988;47.992;8.820;2023-06-10T06:03:53;22.50;47.80
48043;DHT22;33988;47.992;8.820;2023-06-10T06:06:23;22.60;47.80
48043;DHT22;33988;47.992;8.820;2023-06-10T06:08:50;22.70;47.90
48043;DHT22;33988;47.992;8.820;2023-06-10T06:11:17;22.80;47.80
48043;DHT22;33988;47.992;8.820;2023-06-10T06:13:44;22.90;47.80
48043;DHT22;33988;47.992;8.820;2023-06-10T06:16:18;22.90;47.80
48043;DHT22;33988;47.992;8.820;2023-06-10T06:18:46;23.10;47.80
48043;DHT22;33988;47.992;8.820;2023-06-10T06:21:13;23.10;47.70
48043;DHT22;33988;47.992;8.820;2023-06-10T06:23:40;23.30;47.70
48043;DHT22;33988;47.992;8.820;2023-06-10T06:26:07;23.40;47.70
48043;DHT22;33988;47.992;8.820;2023-06-10T06:28:36;23.50;47.60
48043;DHT22;33988;47.992;8.820;2023-06-10T06:31:03;23.50;47.60
48043;DHT22;33988;47.992;8.820;2023-06-10T06:33:30;23.70;47.50
48043;DHT22;33988;47.992;8.820;2023-06-10T06:35:57;23.80;47.50
48043;DHT22;33988;47.992;8.820;2023-06-10T06:38:24;23.90;47.50
48043;DHT22;33988;47.992;8.820;2023-06-10T06:40:53;24.00;47.50
48043;DHT22;33988;47.992;8.820;2023-06-10T06:43:20;24.10;47.50
48043;DHT22;33988;47.992;8.820;2023-06-10T06:45:50;24.30;47.60
48043;DHT22;33988;47.992;8.820;2023-06-10T06:48:21;24.40;47.50
48043;DHT22;33988;47.992;8.820;2023-06-10T06:50:51;24.50;47.50
48043;DHT22;33988;47.992;8.820;2023-06-10T06:53:21;24.70;47.50
48043;DHT22;33988;47.992;8.820;2023-06-10T06:55:47;24.80;47.50
48043;DHT22;33988;47.992;8.820;2023-06-10T06:58:17;25.00;47.40
48043;DHT22;33988;47.992;8.820;2023-06-10T07:00:49;25.30;47.60
48043;DHT22;33988;47.992;8.820;2023-06-10T07:03:19;25.60;47.90
48043;DHT22;33988;47.992;8.820;2023-06-10T07:05:49;26.00;48.30
48043;DHT22;33988;47.992;8.820;2023-06-10T07:08:19;26.50;48.60
48043;DHT22;33988;47.992;8.820;2023-06-10T07:10:45;27.10;48.70
48043;DHT22;33988;47.992;8.820;2023-06-10T07:13:15;27.90;48.40
48043;DHT22;33988;47.992;8.820;2023-06-10T07:15:42;28.70;47.60
48043;DHT22;33988;47.992;8.820;2023-06-10T07:18:11;29.70;46.50
48043;DHT22;33988;47.992;8.820;2023-06-10T07:20:40;30.70;45.20
48043;DHT22;33988;47.992;8.820;2023-06-10T07:23:08;31.70;44.00
48043;DHT22;33988;47.992;8.820;2023-06-10T07:25:37;32.60;42.30
48043;DHT22;33988;47.992;8.820;2023-06-10T07:28:04;33.50;40.60
48043;DHT22;33988;47.992;8.820;2023-06-10T07:30:31;34.20;39.00
48043;DHT22;33988;47.992;8.820;2023-06-10T07:32:58;34.70;37.70
48043;DHT22;33988;47.992;8.820;2023-06-10T07:35:25;35.10;36.40
48043;DHT22;33988;47.992;8.820;2023-06-10T07:37:52;35.30;35.20
48043;DHT22;33988;47.992;8.820;2023-06-10T07:40:19;35.50;34.40
48043;DHT22;33988;47.992;8.820;2023-06-10T07:42:51;35.50;33.80
48043;DHT22;33988;47.992;8.820;2023-06-10T07:45:19;35.40;33.40
48043;DHT22;33988;47.992;8.820;2023-06-10T07:47:46;35.00;34.10
48043;DHT22;33988;47.992;8.820;2023-06-10T07:50:18;35.00;33.40
48043;DHT22;33988;47.992;8.820;2023-06-10T07:52:47;34.80;33.10
48043;DHT22;33988;47.992;8.820;2023-06-10T07:55:14;34.60;33.10
48043;DHT22;33988;47.992;8.820;2023-06-10T07:57:41;34.30;33.10
48043;DHT22;33988;47.992;8.820;2023-06-10T08:00:08;34.10;33.30
48043;DHT22;33988;47.992;8.820;2023-06-10T08:02:36;33.90;33.50
48043;DHT22;33988;47.992;8.820;2023-06-10T08:05:06;33.60;33.80
48043;DHT22;33988;47.992;8.820;2023-06-10T08:07:33;33.50;33.90
48043;DHT22;33988;47.992;8.820;2023-06-10T08:10:03;33.30;33.70
48043;DHT22;33988;47.992;8.820;2023-06-10T08:12:33;33.10;33.50
48043;DHT22;33988;47.992;8.820;2023-06-10T08:15:01;32.90;33.80
48043;DHT22;33988;47.992;8.820;2023-06-10T08:17:33;32.70;34.80
48043;DHT22;33988;47.992;8.820;2023-06-10T08:20:01;32.60;34.40
48043;DHT22;33988;47.992;8.820;2023-06-10T08:22:28;32.50;34.30
48043;DHT22;33988;47.992;8.820;2023-06-10T08:24:56;32.40;34.60
48043;DHT22;33988;47.992;8.820;2023-06-10T08:27:25;32.30;34.80
48043;DHT22;33988;47.992;8.820;2023-06-10T08:29:52;32.20;34.80
48043;DHT22;33988;47.992;8.820;2023-06-10T08:32:21;32.10;35.00
48043;DHT22;33988;47.992;8.820;2023-06-10T08:34:50;32.10;35.20
48043;DHT22;33988;47.992;8.820;2023-06-10T08:37:17;32.00;35.30
48043;DHT22;33988;47.992;8.820;2023-06-10T08:39:44;32.00;35.40
48043;DHT22;33988;47.992;8.820;2023-06-10T08:42:34;31.90;35.50
48043;DHT22;33988;47.992;8.820;2023-06-10T08:45:16;31.80;35.50
48043;DHT22;33988;47.992;8.820;2023-06-10T08:47:50;31.80;35.60
48043;DHT22;33988;47.992;8.820;2023-06-10T08:50:21;31.70;35.70
48043;DHT22;33988;47.992;8.820;2023-06-10T08:52:50;31.50;36.10
48043;DHT22;33988;47.992;8.820;2023-06-10T08:55:30;31.70;35.90
48043;DHT22;33988;47.992;8.820;2023-06-10T08:58:03;31.70;35.70
48043;DHT22;33988;47.992;8.820;2023-06-10T09:00:32;31.70;35.70
48043;DHT22;33988;47.992;8.820;2023-06-10T09:03:01;31.70;35.70
48043;DHT22;33988;47.992;8.820;2023-06-10T09:05:37;31.70;35.70
48043;DHT22;33988;47.992;8.820;2023-06-10T09:08:07;31.70;35.80
48043;DHT22;33988;47.992;8.820;2023-06-10T09:10:35;31.70;35.50
48043;DHT22;33988;47.992;8.820;2023-06-10T09:13:02;31.70;35.30
48043;DHT22;33988;47.992;8.820;2023-06-10T09:15:29;31.70;35.30
48043;DHT22;33988;47.992;8.820;2023-06-10T09:17:59;31.70;35.40
48043;DHT22;33988;47.992;8.820;2023-06-10T09:20:27;31.70;35.40
48043;DHT22;33988;47.992;8.820;2023-06-10T09:22:54;31.80;35.50
48043;DHT22;33988;47.992;8.820;2023-06-10T09:25:35;31.80;35.60
48043;DHT22;33988;47.992;8.820;2023-06-10T09:28:13;31.70;35.20
48043;DHT22;33988;47.992;8.820;2023-06-10T09:30:45;31.80;36.20
48043;DHT22;33988;47.992;8.820;2023-06-10T09:33:14;31.90;35.90
48043;DHT22;33988;47.992;8.820;2023-06-10T09:35:49;31.90;35.80
48043;DHT22;33988;47.992;8.820;2023-06-10T09:38:20;31.90;35.50
48043;DHT22;33988;47.992;8.820;2023-06-10T09:40:52;31.90;35.00
48043;DHT22;33988;47.992;8.820;2023-06-10T09:43:22;31.90;35.10
48043;DHT22;33988;47.992;8.820;2023-06-10T09:45:50;31.90;35.00
48043;DHT22;33988;47.992;8.820;2023-06-10T09:48:21;32.00;35.30
48043;DHT22;33988;47.992;8.820;2023-06-10T09:50:48;32.00;35.20
48043;DHT22;33988;47.992;8.820;2023-06-10T09:53:17;32.00;35.30
48043;DHT22;33988;47.992;8.820;2023-06-10T09:55:47;32.10;35.30
48043;DHT22;33988;47.992;8.820;2023-06-10T09:58:14;32.10;35.10
48043;DHT22;33988;47.992;8.820;2023-06-10T10:00:41;32.20;34.70
48043;DHT22;33988;47.992;8.820;2023-06-10T10:03:22;32.20;34.30
48043;DHT22;33988;47.992;8.820;2023-06-10T10:05:58;32.20;33.90
48043;DHT22;33988;47.992;8.820;2023-06-10T10:08:27;32.20;34.00
48043;DHT22;33988;47.992;8.820;2023-06-10T10:10:56;32.20;34.00
48043;DHT22;33988;47.992;8.820;2023-06-10T10:13:26;32.10;34.20
48043;DHT22;33988;47.992;8.820;2023-06-10T10:15:56;32.10;34.40
48043;DHT22;33988;47.992;8.820;2023-06-10T10:18:25;32.10;34.10
48043;DHT22;33988;47.992;8.820;2023-06-10T10:21:00;32.10;34.10
48043;DHT22;33988;47.992;8.820;2023-06-10T10:23:51;32.10;34.40
48043;DHT22;33988;47.992;8.820;2023-06-10T10:26:25;32.10;34.40
48043;DHT22;33988;47.992;8.820;2023-06-10T10:29:20;32.20;34.00
48043;DHT22;33988;47.992;8.820;2023-06-10T10:31:59;32.10;33.60
48043;DHT22;33988;47.992;8.820;2023-06-10T10:34:35;32.20;33.60
48043;DHT22;33988;47.992;8.820;2023-06-10T10:37:06;32.20;33.50
48043;DHT22;33988;47.992;8.820;2023-06-10T10:39:36;32.20;34.30
48043;DHT22;33988;47.992;8.820;2023-06-10T10:42:04;32.10;33.10
48043;DHT22;33988;47.992;8.820;2023-06-10T10:44:32;32.00;32.90
48043;DHT22;33988;47.992;8.820;2023-06-10T10:47:03;32.00;33.20
48043;DHT22;33988;47.992;8.820;2023-06-10T10:49:37;31.90;33.40
48043;DHT22;33988;47.992;8.820;2023-06-10T10:52:11;31.80;33.50
48043;DHT22;33988;47.992;8.820;2023-06-10T10:54:45;31.80;33.70
48043;DHT22;33988;47.992;8.820;2023-06-10T10:57:20;31.70;33.70
48043;DHT22;33988;47.992;8.820;2023-06-10T11:02:40;31.70;34.00
48043;DHT22;33988;47.992;8.820;2023-06-10T11:05:14;31.70;34.10
48043;DHT22;33988;47.992;8.820;2023-06-10T11:07:53;31.70;34.10
48043;DHT22;33988;47.992;8.820;2023-06-10T11:10:33;31.70;34.30
48043;DHT22;33988;47.992;8.820;2023-06-10T11:13:06;31.70;34.10
48043;DHT22;33988;47.992;8.820;2023-06-10T11:15:45;31.70;34.30
48043;DHT22;33988;47.992;8.820;2023-06-10T11:18:40;31.70;34.40
48043;DHT22;33988;47.992;8.820;2023-06-10T11:21:08;31.70;34.30
48043;DHT22;33988;47.992;8.820;2023-06-10T11:23:43;31.70;34.10
48043;DHT22;33988;47.992;8.820;2023-06-10T11:31:26;31.70;34.20
48043;DHT22;33988;47.992;8.820;2023-06-10T11:33:56;31.70;34.20
48043;DHT22;33988;47.992;8.820;2023-06-10T11:36:24;31.70;34.60
48043;DHT22;33988;47.992;8.820;2023-06-10T11:38:57;31.70;34.00
48043;DHT22;33988;47.992;8.820;2023-06-10T11:41:25;31.70;34.00
48043;DHT22;33988;47.992;8.820;2023-06-10T11:44:01;31.80;33.80
48043;DHT22;33988;47.992;8.820;2023-06-10T11:46:34;31.80;33.40
48043;DHT22;33988;47.992;8.820;2023-06-10T11:49:02;31.80;33.40
48043;DHT22;33988;47.992;8.820;2023-06-10T11:51:40;31.80;33.40
48043;DHT22;33988;47.992;8.820;2023-06-10T11:54:10;31.80;33.00
48043;DHT22;33988;47.992;8.820;2023-06-10T11:56:37;31.70;32.60
48043;DHT22;33988;47.992;8.820;2023-06-10T11:59:06;31.70;32.50
48043;DHT22;33988;47.992;8.820;2023-06-10T12:01:40;31.70;32.70
48043;DHT22;33988;47.992;8.820;2023-06-10T12:04:12;31.60;33.40
48043;DHT22;33988;47.992;8.820;2023-06-10T12:09:29;31.50;33.30
48043;DHT22;33988;47.992;8.820;2023-06-10T12:12:04;31.50;33.30
48043;DHT22;33988;47.992;8.820;2023-06-10T12:14:57;31.50;33.20
48043;DHT22;33988;47.992;8.820;2023-06-10T12:20:02;31.50;33.10
48043;DHT22;33988;47.992;8.820;2023-06-10T12:22:41;31.50;33.00
48043;DHT22;33988;47.992;8.820;2023-06-10T12:25:10;31.50;33.00
48043;DHT22;33988;47.992;8.820;2023-06-10T12:27:40;31.50;32.90
48043;DHT22;33988;47.992;8.820;2023-06-10T12:30:20;31.60;32.50
48043;DHT22;33988;47.992;8.820;2023-06-10T12:32:48;31.60;32.90
48043;DHT22;33988;47.992;8.820;2023-06-10T12:35:21;31.60;32.80
48043;DHT22;33988;47.992;8.820;2023-06-10T12:38:00;31.60;33.60
48043;DHT22;33988;47.992;8.820;2023-06-10T12:40:32;31.70;32.40
48043;DHT22;33988;47.992;8.820;2023-06-10T12:43:00;31.70;32.80
48043;DHT22;33988;47.992;8.820;2023-06-10T12:45:31;31.80;32.90
48043;DHT22;33988;47.992;8.820;2023-06-10T12:50:56;31.90;32.70
48043;DHT22;33988;47.992;8.820;2023-06-10T12:53:24;31.90;32.80
48043;DHT22;33988;47.992;8.820;2023-06-10T12:55:53;32.00;33.00
48043;DHT22;33988;47.992;8.820;2023-06-10T12:58:23;32.10;32.60
48043;DHT22;33988;47.992;8.820;2023-06-10T13:00:50;32.10;32.40
48043;DHT22;33988;47.992;8.820;2023-06-10T13:03:20;32.20;32.40
48043;DHT22;33988;47.992;8.820;2023-06-10T13:05:49;32.20;32.10
48043;DHT22;33988;47.992;8.820;2023-06-10T13:08:17;32.30;31.90
48043;DHT22;33988;47.992;8.820;2023-06-10T13:10:46;32.30;32.00
48043;DHT22;33988;47.992;8.820;2023-06-10T13:13:15;32.40;31.90
48043;DHT22;33988;47.992;8.820;2023-06-10T13:15:44;32.40;32.00
48043;DHT22;33988;47.992;8.820;2023-06-10T13:18:11;32.40;32.00
48043;DHT22;33988;47.992;8.820;2023-06-10T13:20:41;32.50;31.60
48043;DHT22;33988;47.992;8.820;2023-06-10T13:23:09;32.50;31.50
48043;DHT22;33988;47.992;8.820;2023-06-10T13:25:36;32.50;31.10
48043;DHT22;33988;47.992;8.820;2023-06-10T13:28:08;32.40;30.90
48043;DHT22;33988;47.992;8.820;2023-06-10T13:30:35;32.40;30.80
48043;DHT22;33988;47.992;8.820;2023-06-10T13:33:04;32.30;30.90
48043;DHT22;33988;47.992;8.820;2023-06-10T13:35:31;32.30;31.00
48043;DHT22;33988;47.992;8.820;2023-06-10T13:38:00;32.20;31.00
48043;DHT22;33988;47.992;8.820;2023-06-10T13:40:29;32.20;31.30
48043;DHT22;33988;47.992;8.820;2023-06-10T13:42:59;32.20;31.60
48043;DHT22;33988;47.992;8.820;2023-06-10T13:45:26;32.20;31.90
48043;DHT22;33988;47.992;8.820;2023-06-10T13:47:54;32.20;31.90
48043;DHT22;33988;47.992;8.820;2023-06-10T13:50:21;32.20;31.60
48043;DHT22;33988;47.992;8.820;2023-06-10T13:52:48;32.20;31.50
48043;DHT22;33988;47.992;8.820;2023-06-10T13:55:20;32.20;31.80
48043;DHT22;33988;47.992;8.820;2023-06-10T13:57:47;32.10;31.80
48043;DHT22;33988;47.992;8.820;2023-06-10T14:00:14;32.10;31.90
48043;DHT22;33988;47.992;8.820;2023-06-10T14:02:44;32.10;31.50
48043;DHT22;33988;47.992;8.820;2023-06-10T14:05:15;32.10;31.20
48043;DHT22;33988;47.992;8.820;2023-06-10T14:07:42;32.10;31.20
48043;DHT22;33988;47.992;8.820;2023-06-10T14:10:09;32.10;31.30
48043;DHT22;33988;47.992;8.820;2023-06-10T14:12:36;32.10;31.20
48043;DHT22;33988;47.992;8.820;2023-06-10T14:15:06;32.10;31.10
48043;DHT22;33988;47.992;8.820;2023-06-10T14:17:37;32.10;31.10
48043;DHT22;33988;47.992;8.820;2023-06-10T14:20:04;31.80;31.70
48043;DHT22;33988;47.992;8.820;2023-06-10T14:22:32;32.00;31.60
48043;DHT22;33988;47.992;8.820;2023-06-10T14:24:58;32.10;31.50
48043;DHT22;33988;47.992;8.820;2023-06-10T14:27:30;32.10;31.20
48043;DHT22;33988;47.992;8.820;2023-06-10T14:29:57;32.10;31.30
48043;DHT22;33988;47.992;8.820;2023-06-10T14:32:27;32.20;31.00
48043;DHT22;33988;47.992;8.820;2023-06-10T14:34:54;32.10;30.80
48043;DHT22;33988;47.992;8.820;2023-06-10T14:37:21;32.10;30.60
48043;DHT22;33988;47.992;8.820;2023-06-10T14:39:51;32.10;30.40
48043;DHT22;33988;47.992;8.820;2023-06-10T14:42:18;32.10;30.40
48043;DHT22;33988;47.992;8.820;2023-06-10T14:44:44;32.10;30.40
48043;DHT22;33988;47.992;8.820;2023-06-10T14:47:14;32.00;30.30
48043;DHT22;33988;47.992;8.820;2023-06-10T14:49:43;32.00;30.40
48043;DHT22;33988;47.992;8.820;2023-06-10T14:52:12;31.90;30.30
48043;DHT22;33988;47.992;8.820;2023-06-10T14:54:39;31.90;30.40
48043;DHT22;33988;47.992;8.820;2023-06-10T14:57:06;31.80;30.40
48043;DHT22;33988;47.992;8.820;2023-06-10T14:59:34;31.70;30.30
48043;DHT22;33988;47.992;8.820;2023-06-10T15:02:01;31.60;30.20
48043;DHT22;33988;47.992;8.820;2023-06-10T15:04:28;31.50;30.10
48043;DHT22;33988;47.992;8.820;2023-06-10T15:06:57;31.40;30.10
48043;DHT22;33988;47.992;8.820;2023-06-10T15:09:24;31.30;30.10
48043;DHT22;33988;47.992;8.820;2023-06-10T15:11:54;31.30;30.10
48043;DHT22;33988;47.992;8.820;2023-06-10T15:14:21;31.20;30.10
48043;DHT22;33988;47.992;8.820;2023-06-10T15:16:53;31.10;30.30
48043;DHT22;33988;47.992;8.820;2023-06-10T15:19:20;31.00;30.30
48043;DHT22;33988;47.992;8.820;2023-06-10T15:21:49;30.90;30.50
48043;DHT22;33988;47.992;8.820;2023-06-10T15:24:16;30.80;30.60
48043;DHT22;33988;47.992;8.820;2023-06-10T15:26:43;30.80;30.60
48043;DHT22;33988;47.992;8.820;2023-06-10T15:29:12;30.70;30.30
48043;DHT22;33988;47.992;8.820;2023-06-10T15:31:39;30.70;30.30
48043;DHT22;33988;47.992;8.820;2023-06-10T15:34:06;30.60;30.50
48043;DHT22;33988;47.992;8.820;2023-06-10T15:36:36;30.60;30.60
48043;DHT22;33988;47.992;8.820;2023-06-10T15:39:04;30.60;30.60
48043;DHT22;33988;47.992;8.820;2023-06-10T15:41:34;30.60;30.80
48043;DHT22;33988;47.992;8.820;2023-06-10T15:44:04;30.60;31.00
48043;DHT22;33988;47.992;8.820;2023-06-10T15:46:31;30.30;31.20
48043;DHT22;33988;47.992;8.820;2023-06-10T15:48:58;30.60;31.20
48043;DHT22;33988;47.992;8.820;2023-06-10T15:51:29;30.60;31.30
48043;DHT22;33988;47.992;8.820;2023-06-10T15:53:57;30.60;31.20
48043;DHT22;33988;47.992;8.820;2023-06-10T15:56:24;30.60;31.20
48043;DHT22;33988;47.992;8.820;2023-06-10T15:58:52;30.60;31.10
48043;DHT22;33988;47.992;8.820;2023-06-10T16:01:22;30.60;31.10